Time;durP1;ratioP1;P1;durP2;ratioP2;P2;SDS_P1;SDS_P2;PMS_P1;PMS_P2;Temp;Humidity;BMP_temperature;BMP_pressure;BME280_temperature;BME280_humidity;BME280_pressure;Samples;Min_cycle;Max_cycle;Signal;HPM_P1;HPM_P2
2024/03/05 00:01:45;;;;;;;74.40;33.80;;;7.80;99.90;;;;;;7600225;19;20090;-78
2024/03/05 00:04:17;;;;;;;72.88;32.05;;;7.80;99.90;;;;;;7594603;19;20022;-76
2024/03/05 00:06:50;;;;;;;83.40;34.95;;;7.90;99.90;;;;;;7597921;19;20022;-76
2024/03/05 00:09:23;;;;;;;76.63;34.53;;;7.80;99.90;;;;;;7591483;19;20477;-75
2024/03/05 00:11:56;;;;;;;85.47;35.78;;;7.70;99.90;;;;;;7595186;19;21262;-76
2024/03/05 00:14:29;;;;;;;82.25;33.95;;;7.70;99.90;;;;;;7595268;19;20007;-76
2024/03/05 00:17:01;;;;;;;80.00;34.77;;;7.70;99.90;;;;;;7594510;19;20481;-75
2024/03/05 00:19:36;;;;;;;78.93;33.08;;;7.70;99.90;;;;;;7596312;19;20299;-77
2024/03/05 00:22:08;;;;;;;77.95;34.20;;;7.80;99.90;;;;;;7598310;19;20018;-76
2024/03/05 00:24:41;;;;;;;83.30;35.85;;;7.70;99.90;;;;;;7604846;19;20018;-77
2024/03/05 00:27:13;;;;;;;74.32;33.78;;;7.70;99.90;;;;;;7602430;19;20109;-77
2024/03/05 00:29:47;;;;;;;75.32;33.67;;;7.70;99.90;;;;;;7605458;19;20602;-76
2024/03/05 00:32:20;;;;;;;73.07;32.40;;;7.70;99.90;;;;;;7600604;19;20015;-76
2024/03/05 00:34:52;;;;;;;76.55;34.40;;;7.70;99.90;;;;;;7597852;19;20112;-77
2024/03/05 00:37:24;;;;;;;74.93;33.47;;;7.80;99.90;;;;;;7600721;19;20027;-78
2024/03/05 00:39:58;;;;;;;75.70;33.63;;;7.80;99.90;;;;;;7599647;19;21298;-77
2024/03/05 00:42:30;;;;;;;72.97;31.63;;;7.80;99.90;;;;;;7603431;19;20014;-76
2024/03/05 00:45:06;;;;;;;74.60;31.55;;;7.80;99.90;;;;;;7599541;19;20021;-77
2024/03/05 00:47:40;;;;;;;74.63;33.58;;;7.80;99.90;;;;;;7609203;19;20485;-77
2024/03/05 00:50:13;;;;;;;64.53;31.00;;;7.80;99.90;;;;;;7608722;19;20023;-76
2024/03/05 00:52:46;;;;;;;69.78;32.15;;;7.80;99.90;;;;;;7591877;19;20014;-76
2024/03/05 00:55:19;;;;;;;63.92;29.75;;;7.80;99.90;;;;;;7594430;19;20029;-76
2024/03/05 00:57:51;;;;;;;65.30;31.35;;;7.80;99.90;;;;;;7595339;19;20024;-76
2024/03/05 01:00:24;;;;;;;69.05;31.20;;;7.80;99.90;;;;;;7602128;19;23956;-76
2024/03/05 01:02:56;;;;;;;64.68;30.35;;;7.90;99.90;;;;;;7597985;19;20027;-78
2024/03/05 01:05:28;;;;;;;68.72;30.33;;;7.80;99.90;;;;;;7594439;19;20030;-75
2024/03/05 01:08:00;;;;;;;68.00;30.02;;;7.90;99.90;;;;;;7587480;19;20041;-78
2024/03/05 01:10:33;;;;;;;63.60;29.33;;;7.80;99.90;;;;;;7589082;19;20068;-77
2024/03/05 01:13:05;;;;;;;74.10;32.55;;;7.80;99.90;;;;;;7597519;19;20018;-76
2024/03/05 01:15:41;;;;;;;67.25;29.10;;;7.80;99.90;;;;;;7591747;19;20085;-75
2024/03/05 01:18:14;;;;;;;68.18;30.58;;;7.70;99.90;;;;;;7599024;19;20027;-76
2024/03/05 01:20:46;;;;;;;65.28;29.80;;;7.70;99.90;;;;;;7598842;19;20024;-77
2024/03/05 01:23:18;;;;;;;68.47;31.55;;;7.70;99.90;;;;;;7603872;19;20041;-77
2024/03/05 01:25:51;;;;;;;74.78;32.65;;;7.70;99.90;;;;;;7593332;19;20365;-78
2024/03/05 01:28:24;;;;;;;74.57;32.10;;;7.70;99.90;;;;;;7602189;19;20528;-75
2024/03/05 01:30:58;;;;;;;76.30;34.72;;;7.60;99.90;;;;;;7603150;19;20037;-78
2024/03/05 01:33:31;;;;;;;74.65;33.58;;;7.60;99.90;;;;;;7605188;19;20117;-78
2024/03/05 01:36:05;;;;;;;72.03;32.58;;;7.60;99.90;;;;;;7605268;19;20018;-78
2024/03/05 01:38:37;;;;;;;75.35;32.10;;;7.60;99.90;;;;;;7596657;19;20882;-75
2024/03/05 01:41:10;;;;;;;75.65;34.40;;;7.60;99.90;;;;;;7604182;19;20102;-77
2024/03/05 01:43:42;;;;;;;75.43;32.67;;;7.50;99.90;;;;;;7600516;19;20106;-75
2024/03/05 01:46:17;;;;;;;75.40;34.10;;;7.60;99.90;;;;;;7590448;19;20852;-75
2024/03/05 01:48:51;;;;;;;85.43;35.67;;;7.60;99.90;;;;;;7585817;19;20046;-77
2024/03/05 01:51:24;;;;;;;80.40;36.13;;;7.60;99.90;;;;;;7598670;19;20393;-77
2024/03/05 01:53:58;;;;;;;82.63;36.88;;;7.50;99.90;;;;;;7601407;19;20011;-77
2024/03/05 01:56:30;;;;;;;81.25;34.90;;;7.50;99.90;;;;;;7595932;19;20032;-77
2024/03/05 01:59:03;;;;;;;87.78;36.03;;;7.50;99.90;;;;;;7567219;19;20017;-78
2024/03/05 02:01:36;;;;;;;83.47;35.35;;;7.50;99.90;;;;;;7585841;19;20022;-77
2024/03/05 02:04:09;;;;;;;;;;;7.50;99.90;;;;;;7597834;19;20030;-74
2024/03/05 02:06:42;;;;;;;79.47;35.15;;;7.60;99.90;;;;;;7587484;19;19929;-78
2024/03/05 02:09:15;;;;;;;84.13;36.40;;;7.60;99.90;;;;;;7589886;19;20026;-77
2024/03/05 02:11:48;;;;;;;92.07;40.05;;;7.60;99.90;;;;;;7589846;19;20021;-77
2024/03/05 02:14:31;;;;;;;91.25;39.67;;;7.60;99.90;;;;;;7599355;19;20014;-78
2024/03/05 02:17:03;;;;;;;85.47;38.20;;;7.60;99.90;;;;;;7589575;19;20015;-75
2024/03/05 02:19:36;;;;;;;85.15;35.97;;;7.50;99.90;;;;;;7576361;19;20567;-76
2024/03/05 02:22:09;;;;;;;77.07;33.78;;;7.60;99.90;;;;;;7600558;19;20029;-76
2024/03/05 02:24:42;;;;;;;81.93;35.00;;;7.50;99.90;;;;;;7589827;19;20030;-77
2024/03/05 02:27:15;;;;;;;80.63;35.23;;;7.60;99.90;;;;;;7603069;19;20427;-76
2024/03/05 02:29:59;;;;;;;84.33;35.87;;;7.60;99.90;;;;;;7590237;19;20627;-76
2024/03/05 02:32:34;;;;;;;85.65;37.30;;;7.50;99.90;;;;;;7602499;19;20022;-76
2024/03/05 02:35:10;;;;;;;78.45;34.83;;;7.50;99.90;;;;;;7597869;19;20048;-76
2024/03/05 02:37:43;;;;;;;79.60;35.70;;;7.50;99.90;;;;;;7591873;19;20546;-75
2024/03/05 02:40:16;;;;;;;83.17;35.87;;;7.60;99.90;;;;;;7593332;19;20078;-74
2024/03/05 02:42:48;;;;;;;90.13;38.30;;;7.60;99.90;;;;;;7591944;19;20014;-73
2024/03/05 02:45:21;;;;;;;89.68;35.78;;;7.60;99.90;;;;;;7591994;19;20504;-75
2024/03/05 02:47:53;;;;;;;92.90;36.25;;;7.60;99.90;;;;;;7570288;19;20049;-77
2024/03/05 02:50:25;;;;;;;89.97;38.20;;;7.50;99.90;;;;;;7585286;19;20134;-75
2024/03/05 02:52:58;;;;;;;90.67;36.63;;;7.50;99.90;;;;;;7593260;19;20014;-75
2024/03/05 02:55:30;;;;;;;87.05;36.78;;;7.50;99.90;;;;;;7575292;19;20024;-76
2024/03/05 02:58:05;;;;;;;96.30;37.45;;;7.70;99.90;;;;;;7587978;19;20018;-76
2024/03/05 03:00:38;;;;;;;94.00;37.70;;;7.70;99.90;;;;;;7585616;19;20015;-75
2024/03/05 03:03:10;;;;;;;97.63;39.80;;;7.60;99.90;;;;;;7582013;19;20731;-75
2024/03/05 03:05:42;;;;;;;92.13;38.80;;;7.50;99.90;;;;;;7585851;19;20052;-78
2024/03/05 03:08:17;;;;;;;92.15;36.42;;;7.60;99.90;;;;;;7593102;19;20018;-77
2024/03/05 03:10:49;;;;;;;89.30;36.05;;;7.60;99.90;;;;;;7591698;19;20018;-77
2024/03/05 03:13:24;;;;;;;90.20;35.97;;;7.60;99.90;;;;;;7592260;19;20592;-77
2024/03/05 03:15:56;;;;;;;85.90;36.65;;;7.70;99.90;;;;;;7586614;19;20949;-77
2024/03/05 03:18:29;;;;;;;85.18;36.72;;;7.70;99.90;;;;;;7590991;19;20018;-76
2024/03/05 03:21:04;;;;;;;87.28;36.58;;;7.70;99.90;;;;;;7593873;19;20541;-77
2024/03/05 03:23:36;;;;;;;94.53;38.00;;;7.60;99.90;;;;;;7576687;19;20015;-78
2024/03/05 03:26:09;;;;;;;94.72;39.28;;;7.50;99.90;;;;;;7586144;19;20025;-78
2024/03/05 03:28:41;;;;;;;90.97;37.22;;;7.50;99.90;;;;;;7588344;19;20023;-78
2024/03/05 03:31:14;;;;;;;89.75;36.05;;;7.50;99.90;;;;;;7588479;19;20100;-78
2024/03/05 03:33:46;;;;;;;84.22;35.50;;;7.60;99.90;;;;;;7539426;19;20077;-78
2024/03/05 03:36:24;;;;;;;98.13;39.10;;;7.60;99.90;;;;;;7583131;19;20018;-78
2024/03/05 03:38:57;;;;;;;83.20;36.03;;;7.50;99.90;;;;;;7584947;19;20362;-78
2024/03/05 03:41:29;;;;;;;94.40;39.08;;;7.50;99.90;;;;;;7581912;19;20017;-77
2024/03/05 03:44:01;;;;;;;86.88;38.42;;;7.50;99.90;;;;;;7571887;19;20017;-77
2024/03/05 03:46:37;;;;;;;94.97;39.08;;;7.50;99.90;;;;;;7582859;19;20025;-78
2024/03/05 03:49:09;;;;;;;92.85;36.47;;;7.50;99.90;;;;;;7591724;19;20598;-77
2024/03/05 03:51:43;;;;;;;94.82;36.90;;;7.50;99.90;;;;;;7581532;19;20014;-78
2024/03/05 03:54:16;;;;;;;94.57;38.03;;;7.50;99.90;;;;;;7559335;19;20048;-78
2024/03/05 03:56:48;;;;;;;84.65;36.42;;;7.40;99.90;;;;;;7562550;19;21046;-76
2024/03/05 03:59:21;;;;;;;97.22;38.50;;;7.50;99.90;;;;;;7580712;19;20015;-76
2024/03/05 04:01:53;;;;;;;91.72;37.47;;;7.50;99.90;;;;;;7595870;19;20010;-77
2024/03/05 04:04:25;;;;;;;90.80;38.42;;;7.40;99.90;;;;;;7582809;19;20010;-76
2024/03/05 04:06:59;;;;;;;101.18;38.72;;;7.50;99.90;;;;;;7579382;19;20457;-77
2024/03/05 04:09:32;;;;;;;81.22;35.90;;;7.50;99.90;;;;;;7559311;19;20075;-75
2024/03/05 04:12:04;;;;;;;97.22;37.97;;;7.50;99.90;;;;;;7586023;19;20010;-77
2024/03/05 04:14:38;;;;;;;92.50;37.42;;;7.50;99.90;;;;;;7590740;19;20015;-76
2024/03/05 04:17:13;;;;;;;96.18;39.03;;;7.40;99.90;;;;;;7590587;19;20093;-77
2024/03/05 04:19:47;;;;;;;97.60;38.75;;;7.40;99.90;;;;;;7586305;19;20452;-78
2024/03/05 04:22:20;;;;;;;93.00;39.05;;;7.40;99.90;;;;;;7577322;19;20015;-77
2024/03/05 04:24:52;;;;;;;97.25;39.58;;;7.40;99.90;;;;;;7587905;19;20010;-78
2024/03/05 04:27:26;;;;;;;100.75;40.13;;;7.40;99.90;;;;;;7591599;19;20018;-76
2024/03/05 04:29:59;;;;;;;90.78;39.40;;;7.30;99.90;;;;;;7579771;19;20022;-75
2024/03/05 04:32:31;;;;;;;98.78;39.72;;;7.30;99.90;;;;;;7580552;19;20483;-75
2024/03/05 04:35:06;;;;;;;94.32;38.53;;;7.30;99.90;;;;;;7577855;19;20026;-75
2024/03/05 04:37:40;;;;;;;91.68;38.13;;;7.30;99.90;;;;;;7586350;19;20019;-76
2024/03/05 04:40:12;;;;;;;91.25;36.55;;;7.30;99.90;;;;;;7584685;19;20018;-76
2024/03/05 04:42:45;;;;;;;100.70;38.50;;;7.40;99.90;;;;;;7584097;19;20015;-77
2024/03/05 04:45:18;;;;;;;93.28;38.47;;;7.40;99.90;;;;;;7587855;19;20381;-76
2024/03/05 04:47:50;;;;;;;95.47;38.08;;;7.40;99.90;;;;;;7586154;19;20039;-74
2024/03/05 04:50:23;;;;;;;86.07;34.92;;;7.30;99.90;;;;;;7578386;19;20014;-74
2024/03/05 04:52:55;;;;;;;92.57;39.37;;;7.30;99.90;;;;;;7580961;19;20027;-75
2024/03/05 04:55:28;;;;;;;93.50;38.45;;;7.40;99.90;;;;;;7572621;19;20036;-77
2024/03/05 04:58:00;;;;;;;99.65;40.60;;;7.40;99.90;;;;;;7583901;19;20499;-75
2024/03/05 05:00:33;;;;;;;100.55;39.40;;;7.40;99.90;;;;;;7580101;19;20153;-75
2024/03/05 05:03:06;;;;;;;102.10;40.00;;;7.20;99.90;;;;;;7591603;19;20014;-76
2024/03/05 05:05:39;;;;;;;95.97;39.50;;;7.20;99.90;;;;;;7584766;19;20021;-77
2024/03/05 05:08:12;;;;;;;;;;;7.10;99.90;;;;;;7593033;19;20939;-75
2024/03/05 05:10:46;;;;;;;105.18;40.72;;;7.20;99.90;;;;;;7585576;19;21879;-75
2024/03/05 05:13:19;;;;;;;;;;;7.20;99.90;;;;;;7592077;19;20066;-76
2024/03/05 05:15:51;;;;;;;106.87;45.20;;;7.10;99.90;;;;;;7590637;19;19919;-77
2024/03/05 05:18:24;;;;;;;131.20;52.33;;;7.10;99.90;;;;;;7579480;19;20498;-78
2024/03/05 05:20:57;;;;;;;134.25;53.30;;;7.10;99.90;;;;;;7585817;19;21101;-75
2024/03/05 05:23:29;;;;;;;120.68;46.40;;;7.10;99.90;;;;;;7588291;19;20533;-76
2024/03/05 05:26:02;;;;;;;156.48;57.35;;;7.20;99.90;;;;;;7594320;19;20017;-76
2024/03/05 05:28:34;;;;;;;119.32;48.28;;;7.20;99.90;;;;;;7597324;19;20740;-76
2024/03/05 05:31:23;;;;;;;133.98;51.58;;;7.20;99.90;;;;;;7568980;19;20019;-78
2024/03/05 05:33:57;;;;;;;110.80;45.38;;;7.10;99.90;;;;;;7585665;19;20052;-76
2024/03/05 05:36:30;;;;;;;117.90;44.63;;;7.10;99.90;;;;;;7586182;19;20025;-75
2024/03/05 05:39:03;;;;;;;;;;;7.00;99.90;;;;;;7569918;19;20946;-75
2024/03/05 05:41:36;;;;;;;104.28;39.53;;;7.00;99.90;;;;;;7576004;19;19915;-76
2024/03/05 05:44:10;;;;;;;107.88;42.45;;;7.00;99.90;;;;;;7571869;19;20110;-76
2024/03/05 05:46:42;;;;;;;;;;;7.00;99.90;;;;;;7566828;19;20095;-76
2024/03/05 05:49:19;;;;;;;131.20;50.45;;;7.00;99.90;;;;;;7589965;19;19918;-76
2024/03/05 05:51:53;;;;;;;143.50;56.28;;;7.00;99.90;;;;;;7570103;19;20015;-77
2024/03/05 05:54:25;;;;;;;125.00;49.47;;;7.00;99.90;;;;;;7568941;19;20018;-77
2024/03/05 05:56:58;;;;;;;106.60;43.88;;;7.00;99.90;;;;;;7573498;19;20022;-77
2024/03/05 05:59:30;;;;;;;110.78;43.85;;;7.00;99.90;;;;;;7594390;19;20673;-77
2024/03/05 06:02:03;;;;;;;99.85;40.75;;;7.00;99.90;;;;;;7588114;19;20033;-76
2024/03/05 06:04:36;;;;;;;93.00;37.63;;;7.00;99.90;;;;;;7579107;19;20026;-77
2024/03/05 06:07:08;;;;;;;101.05;39.80;;;7.10;99.90;;;;;;7581895;19;20011;-75
2024/03/05 06:09:43;;;;;;;101.50;41.95;;;7.20;99.90;;;;;;7576424;19;20018;-76
2024/03/05 06:12:16;;;;;;;94.57;38.83;;;7.20;99.90;;;;;;7586605;19;20014;-77
2024/03/05 06:14:52;;;;;;;89.07;37.97;;;7.20;99.90;;;;;;7565977;19;20014;-78
2024/03/05 06:17:24;;;;;;;103.70;41.08;;;7.20;99.90;;;;;;7532467;19;21161;-78
2024/03/05 06:19:57;;;;;;;105.10;39.97;;;7.20;99.90;;;;;;7546307;19;20015;-76
2024/03/05 06:22:31;;;;;;;;;;;7.20;99.90;;;;;;7559573;19;20081;-74
2024/03/05 06:25:11;;;;;;;98.10;39.15;;;7.20;99.90;;;;;;7563978;19;19921;-78
2024/03/05 06:27:45;;;;;;;97.13;38.42;;;7.10;99.90;;;;;;7564859;19;20026;-78
2024/03/05 06:30:18;;;;;;;96.00;38.58;;;7.20;99.90;;;;;;7549080;19;20021;-75
2024/03/05 06:32:51;;;;;;;110.82;43.50;;;7.20;99.90;;;;;;7553734;19;20034;-76
2024/03/05 06:35:26;;;;;;;102.50;40.60;;;7.20;99.90;;;;;;7547421;19;20014;-77
2024/03/05 06:38:00;;;;;;;93.03;38.95;;;7.20;99.90;;;;;;7581985;19;20018;-78
2024/03/05 06:40:36;;;;;;;100.38;41.03;;;7.20;99.90;;;;;;7585892;19;20042;-77
2024/03/05 06:43:20;;;;;;;109.28;42.97;;;7.20;99.90;;;;;;7589542;19;20022;-77
2024/03/05 06:45:54;;;;;;;107.95;40.92;;;7.30;99.90;;;;;;7586140;19;20887;-77
2024/03/05 06:48:30;;;;;;;106.93;43.10;;;7.30;99.90;;;;;;7587781;19;20015;-78
2024/03/05 06:51:16;;;;;;;98.53;40.53;;;7.30;99.90;;;;;;7587610;19;20021;-77
2024/03/05 06:56:39;;;;;;;105.55;40.72;;;7.30;99.90;;;;;;7611494;19;20015;-77
2024/03/05 06:59:13;;;;;;;102.10;41.35;;;7.40;99.90;;;;;;7607315;19;20044;-77
2024/03/05 07:01:45;;;;;;;97.57;40.53;;;7.30;99.90;;;;;;7607419;19;20026;-77
2024/03/05 07:04:18;;;;;;;104.03;44.07;;;7.30;99.90;;;;;;7598026;19;20380;-77
2024/03/05 07:06:50;;;;;;;104.53;42.42;;;7.30;99.90;;;;;;7598062;19;20052;-77
2024/03/05 07:09:27;;;;;;;95.50;37.97;;;7.40;99.90;;;;;;7599920;19;20018;-77
2024/03/05 07:11:59;;;;;;;104.25;42.08;;;7.50;99.90;;;;;;7603908;19;20027;-77
2024/03/05 07:14:32;;;;;;;99.35;41.92;;;7.50;99.90;;;;;;7603942;19;20014;-76
2024/03/05 07:17:08;;;;;;;98.57;40.95;;;7.50;99.90;;;;;;7607563;19;20543;-78
2024/03/05 07:19:40;;;;;;;103.40;40.08;;;7.50;99.90;;;;;;7601061;19;20148;-78
2024/03/05 07:22:13;;;;;;;94.88;37.85;;;7.50;99.90;;;;;;7602118;19;20010;-78
2024/03/05 07:24:45;;;;;;;104.85;40.75;;;7.50;99.90;;;;;;7601609;19;20025;-78
2024/03/05 07:27:17;;;;;;;113.60;41.80;;;7.50;99.90;;;;;;7601909;19;20018;-78
2024/03/05 07:29:50;;;;;;;98.53;39.53;;;7.50;99.90;;;;;;7603897;19;20014;-78
2024/03/05 07:32:22;;;;;;;97.18;38.88;;;7.40;99.90;;;;;;7606915;19;20024;-77
2024/03/05 07:34:55;;;;;;;100.78;40.78;;;7.50;99.90;;;;;;7601717;19;20070;-77
2024/03/05 07:37:28;;;;;;;105.85;40.47;;;7.50;99.90;;;;;;7605046;19;20014;-78
2024/03/05 07:40:11;;;;;;;98.95;39.72;;;7.50;99.90;;;;;;7605916;19;20030;-77
2024/03/05 07:42:44;;;;;;;95.95;38.03;;;7.60;99.90;;;;;;7612643;19;20350;-77
2024/03/05 07:45:18;;;;;;;95.97;38.63;;;7.70;99.90;;;;;;7605802;19;20018;-76
2024/03/05 07:47:51;;;;;;;97.97;38.88;;;7.70;99.90;;;;;;7606356;19;20011;-77
2024/03/05 07:50:24;;;;;;;91.07;38.20;;;7.70;99.90;;;;;;7598246;19;20035;-76
2024/03/05 07:52:59;;;;;;;97.88;41.03;;;7.70;99.90;;;;;;7588636;19;20014;-71
2024/03/05 07:55:36;;;;;;;94.07;38.60;;;7.70;99.90;;;;;;7592526;19;20398;-75
2024/03/05 07:58:10;;;;;;;93.18;37.00;;;7.70;99.90;;;;;;7590239;19;20058;-75
2024/03/05 08:00:42;;;;;;;102.18;39.85;;;7.70;99.90;;;;;;7594269;19;20079;-74
2024/03/05 08:03:14;;;;;;;101.85;40.67;;;7.70;99.90;;;;;;7591970;19;20383;-74
2024/03/05 08:05:50;;;;;;;96.57;39.43;;;7.70;99.90;;;;;;7596550;19;21369;-74
2024/03/05 08:08:25;;;;;;;101.32;39.45;;;7.70;99.90;;;;;;7590522;19;20020;-74
2024/03/05 08:10:57;;;;;;;100.07;39.28;;;7.80;99.90;;;;;;7589070;19;20018;-74
2024/03/05 08:13:33;;;;;;;93.88;39.08;;;7.70;99.90;;;;;;7589283;19;20090;-76
2024/03/05 08:16:08;;;;;;;95.50;39.55;;;7.80;99.90;;;;;;7593297;19;20101;-77
2024/03/05 08:18:41;;;;;;;105.90;40.55;;;7.80;99.90;;;;;;7578055;19;20006;-75
2024/03/05 08:21:13;;;;;;;103.10;41.97;;;7.80;99.90;;;;;;7595629;19;20018;-75
2024/03/05 08:23:46;;;;;;;105.22;42.45;;;7.90;99.90;;;;;;7593071;19;20026;-77
2024/03/05 08:26:18;;;;;;;98.75;40.95;;;7.90;99.90;;;;;;7588660;19;20801;-77
2024/03/05 08:28:50;;;;;;;109.60;43.05;;;7.70;99.90;;;;;;7590128;19;20006;-76
2024/03/05 08:31:24;;;;;;;106.05;40.05;;;7.80;99.90;;;;;;7584656;19;20019;-76
2024/03/05 08:33:59;;;;;;;97.15;36.95;;;7.80;99.90;;;;;;7585962;19;20086;-76
2024/03/05 08:36:36;;;;;;;108.28;39.65;;;8.00;99.90;;;;;;7590163;19;22373;-75
2024/03/05 08:39:15;;;;;;;101.75;42.80;;;7.90;99.90;;;;;;7587888;19;20018;-76
2024/03/05 08:41:48;;;;;;;101.97;40.50;;;7.80;99.90;;;;;;7590343;19;20022;-76
2024/03/05 08:44:21;;;;;;;105.95;40.92;;;7.80;99.90;;;;;;7587519;19;20022;-76
2024/03/05 08:46:54;;;;;;;104.50;39.03;;;7.80;99.90;;;;;;7584373;19;20021;-76
2024/03/05 08:49:27;;;;;;;95.55;37.33;;;7.80;99.90;;;;;;7597686;19;20357;-76
2024/03/05 08:52:03;;;;;;;91.35;36.15;;;7.80;99.90;;;;;;7590142;19;20535;-77
2024/03/05 08:54:35;;;;;;;88.22;36.75;;;7.80;99.90;;;;;;7596137;19;20017;-76
2024/03/05 08:57:08;;;;;;;96.50;37.97;;;7.80;99.90;;;;;;7594417;19;20824;-76
2024/03/05 08:59:40;;;;;;;94.55;39.05;;;7.80;99.90;;;;;;7608194;19;20026;-77
2024/03/05 09:02:13;;;;;;;96.97;36.57;;;7.90;99.90;;;;;;7605477;19;20022;-77
2024/03/05 09:04:45;;;;;;;95.55;38.63;;;7.80;99.90;;;;;;7602198;19;20025;-76
2024/03/05 09:07:18;;;;;;;79.95;31.83;;;7.80;99.90;;;;;;7592063;19;21082;-77
2024/03/05 09:09:51;;;;;;;71.13;27.88;;;8.00;99.90;;;;;;7600926;19;20022;-76
2024/03/05 09:12:24;;;;;;;62.90;25.95;;;8.00;99.90;;;;;;7592370;19;21213;-77
2024/03/05 09:14:56;;;;;;;61.38;26.25;;;7.90;99.90;;;;;;7597913;19;20015;-77
2024/03/05 09:17:28;;;;;;;45.53;19.70;;;7.90;99.90;;;;;;7602355;19;20056;-77
2024/03/05 09:20:13;;;;;;;37.70;13.55;;;7.80;99.90;;;;;;7600391;19;20535;-77
2024/03/05 09:22:46;;;;;;;41.42;17.73;;;7.80;99.90;;;;;;7586501;19;21215;-76
2024/03/05 09:25:20;;;;;;;33.92;15.13;;;7.90;99.90;;;;;;7599304;19;20567;-76
2024/03/05 09:27:52;;;;;;;37.78;16.20;;;7.80;99.90;;;;;;7594699;19;20530;-77
2024/03/05 09:30:28;;;;;;;36.92;15.07;;;7.90;99.90;;;;;;7598410;19;20037;-77
2024/03/05 09:33:02;;;;;;;40.13;17.08;;;8.00;99.90;;;;;;7598612;19;20018;-77
2024/03/05 09:35:35;;;;;;;38.67;16.27;;;8.00;99.90;;;;;;7599522;19;20014;-77
2024/03/05 09:38:08;;;;;;;52.53;20.83;;;8.00;99.90;;;;;;7590640;19;22070;-77
2024/03/05 09:40:42;;;;;;;45.17;20.80;;;8.00;99.90;;;;;;7597987;19;20025;-76
2024/03/05 09:43:15;;;;;;;46.40;20.73;;;8.00;99.90;;;;;;7598907;19;20106;-76
2024/03/05 09:45:48;;;;;;;53.97;21.55;;;7.90;99.90;;;;;;7595438;19;20061;-74
2024/03/05 09:48:21;;;;;;;52.97;23.45;;;8.00;99.90;;;;;;7598182;19;20025;-77
2024/03/05 09:50:54;;;;;;;57.63;23.88;;;8.00;99.90;;;;;;7597775;19;20094;-74
2024/03/05 09:53:27;;;;;;;63.20;25.83;;;8.10;99.90;;;;;;7581808;19;20014;-77
2024/03/05 09:56:00;;;;;;;;;;;8.10;99.90;;;;;;7602941;19;20397;-75
2024/03/05 09:58:39;;;;;;;67.75;26.45;;;8.00;99.90;;;;;;7604402;19;19930;-77
2024/03/05 10:01:12;;;;;;;62.72;24.60;;;8.10;99.90;;;;;;7610674;19;20011;-77
2024/03/05 10:03:48;;;;;;;58.57;23.70;;;8.10;99.90;;;;;;7604630;19;20014;-77
2024/03/05 10:06:21;;;;;;;68.85;26.55;;;8.20;99.90;;;;;;7573222;19;20014;-76
2024/03/05 10:08:54;;;;;;;68.93;26.52;;;8.20;99.90;;;;;;7596616;19;20755;-77
2024/03/05 10:11:26;;;;;;;63.40;25.80;;;8.20;99.90;;;;;;7603173;19;20369;-76
2024/03/05 10:14:08;;;;;;;70.97;28.05;;;8.20;99.90;;;;;;7604236;19;21105;-76
2024/03/05 10:16:43;;;;;;;63.05;26.55;;;8.20;99.90;;;;;;7599872;19;20022;-77
2024/03/05 10:19:16;;;;;;;62.75;24.70;;;8.30;99.90;;;;;;7556260;19;20530;-77
2024/03/05 10:21:49;;;;;;;54.17;23.38;;;8.40;99.90;;;;;;7597416;19;20046;-77
2024/03/05 10:24:33;;;;;;;58.77;23.97;;;8.40;99.90;;;;;;7599741;19;20015;-76
2024/03/05 10:27:08;;;;;;;60.60;23.38;;;8.50;99.90;;;;;;7601428;19;20541;-76
2024/03/05 10:29:41;;;;;;;48.85;21.90;;;8.60;99.90;;;;;;7585517;19;20020;-76
2024/03/05 10:32:16;;;;;;;50.73;22.07;;;8.60;99.90;;;;;;7590708;19;21130;-76
2024/03/05 10:34:49;;;;;;;55.33;24.10;;;8.60;99.90;;;;;;7587024;19;20015;-76
2024/03/05 10:37:23;;;;;;;51.20;22.27;;;8.80;99.90;;;;;;7604169;19;21151;-76
2024/03/05 10:39:55;;;;;;;51.65;23.25;;;8.80;99.90;;;;;;7600182;19;20010;-76
2024/03/05 10:42:28;;;;;;;59.25;26.17;;;8.90;99.90;;;;;;7605019;19;20014;-76
2024/03/05 10:45:01;;;;;;;55.20;24.73;;;8.90;99.90;;;;;;7604846;19;20022;-74
2024/03/05 10:47:34;;;;;;;51.42;23.70;;;9.00;99.90;;;;;;7586203;19;20013;-74
2024/03/05 10:50:12;;;;;;;54.72;23.83;;;9.10;99.90;;;;;;7594773;19;20195;-77
2024/03/05 10:52:47;;;;;;;54.17;25.63;;;9.20;99.90;;;;;;7602694;19;20031;-77
2024/03/05 10:55:22;;;;;;;54.10;23.58;;;9.30;99.90;;;;;;7602914;19;20022;-77
2024/03/05 10:58:19;;;;;;;54.35;24.17;;;9.30;99.90;;;;;;7608405;19;20017;-77
2024/03/05 11:00:53;;;;;;;54.70;25.80;;;9.30;99.90;;;;;;7607165;19;20022;-75
2024/03/05 11:03:36;;;;;;;;;;;9.40;99.90;;;;;;7601185;19;21337;-75
2024/03/05 11:06:09;;;;;;;48.22;23.67;;;9.40;99.90;;;;;;7605160;19;20388;-75
2024/03/05 11:08:44;;;;;;;46.28;22.42;;;9.50;99.90;;;;;;7600508;19;20060;-75
2024/03/05 11:11:19;;;;;;;49.30;23.35;;;9.50;99.90;;;;;;7602711;19;20018;-76
2024/03/05 11:13:53;;;;;;;48.05;22.05;;;9.70;99.90;;;;;;7602837;19;20094;-76
2024/03/05 11:16:28;;;;;;;43.15;21.60;;;9.70;99.90;;;;;;7600137;19;20492;-75
2024/03/05 11:19:07;;;;;;;48.60;23.65;;;9.80;99.90;;;;;;7600729;19;20024;-75
2024/03/05 11:21:41;;;;;;;44.50;22.13;;;9.70;99.90;;;;;;7598722;19;20018;-76
2024/03/05 11:24:14;;;;;;;47.63;22.52;;;9.60;99.90;;;;;;7590955;19;20070;-75
2024/03/05 11:26:47;;;;;;;44.22;21.65;;;9.60;99.90;;;;;;7598636;19;22373;-75
2024/03/05 11:29:29;;;;;;;;;;;9.60;99.90;;;;;;7604509;19;20249;-76
2024/03/05 11:32:03;;;;;;;44.55;18.98;;;9.50;99.90;;;;;;7602559;19;19918;-75
2024/03/05 11:34:36;;;;;;;35.67;18.50;;;9.60;99.90;;;;;;7589489;19;20019;-75
2024/03/05 11:37:12;;;;;;;36.65;19.05;;;9.50;99.90;;;;;;7599053;19;20359;-76
2024/03/05 11:39:47;;;;;;;36.78;18.27;;;9.50;99.90;;;;;;7601755;19;21726;-76
2024/03/05 11:42:20;;;;;;;38.40;18.10;;;9.60;99.90;;;;;;7601572;19;20018;-75
2024/03/05 11:44:54;;;;;;;30.52;16.95;;;9.70;99.90;;;;;;7589319;19;20101;-75
2024/03/05 11:47:26;;;;;;;35.90;17.63;;;9.80;99.90;;;;;;7591047;19;20082;-74
2024/03/05 11:50:03;;;;;;;37.63;17.70;;;9.80;99.90;;;;;;7601539;19;20014;-74
2024/03/05 11:52:36;;;;;;;29.58;16.40;;;9.80;99.90;;;;;;7598590;19;20034;-75
2024/03/05 11:55:09;;;;;;;33.07;16.67;;;9.90;99.90;;;;;;7598312;19;20022;-75
2024/03/05 11:57:41;;;;;;;28.67;16.40;;;10.10;99.90;;;;;;7600111;19;20745;-75
2024/03/05 12:00:16;;;;;;;33.17;16.42;;;10.10;99.90;;;;;;7595623;19;20011;-74
2024/03/05 12:02:56;;;;;;;34.88;16.45;;;10.20;99.90;;;;;;7601235;19;20048;-74
2024/03/05 12:05:29;;;;;;;30.45;16.15;;;10.30;99.90;;;;;;7599313;19;20022;-75
2024/03/05 12:08:07;;;;;;;32.65;16.00;;;10.40;99.90;;;;;;7605605;19;20011;-74
2024/03/05 12:10:40;;;;;;;30.35;15.90;;;10.50;99.90;;;;;;7608165;19;20443;-75
2024/03/05 12:13:18;;;;;;;33.55;16.13;;;10.40;99.90;;;;;;7603018;19;20018;-75
2024/03/05 12:15:50;;;;;;;27.65;15.68;;;10.30;99.90;;;;;;7597836;19;20044;-75
2024/03/05 12:18:24;;;;;;;27.75;14.57;;;10.30;99.90;;;;;;7571777;19;20019;-75
2024/03/05 12:20:57;;;;;;;28.00;15.32;;;10.30;99.90;;;;;;7573705;19;20021;-75
2024/03/05 12:23:29;;;;;;;34.57;17.20;;;10.20;99.90;;;;;;7600151;19;20026;-74
2024/03/05 12:26:14;;;;;;;34.00;17.63;;;10.30;99.90;;;;;;7588490;19;20389;-75
2024/03/05 12:28:49;;;;;;;29.95;16.75;;;10.20;99.90;;;;;;7593603;19;20828;-75
2024/03/05 12:31:21;;;;;;;31.42;16.58;;;10.10;99.90;;;;;;7562857;19;20014;-75
2024/03/05 12:33:54;;;;;;;34.72;17.88;;;10.10;99.90;;;;;;7578457;19;20014;-75
2024/03/05 12:36:26;;;;;;;31.20;16.33;;;10.00;99.90;;;;;;7565459;19;20025;-74
2024/03/05 12:38:59;;;;;;;34.28;14.88;;;10.00;99.90;;;;;;7588579;19;20456;-76
2024/03/05 12:41:31;;;;;;;41.60;19.77;;;10.10;99.90;;;;;;7605318;19;20034;-74
2024/03/05 12:44:04;;;;;;;38.92;21.10;;;9.90;99.90;;;;;;7596903;19;20638;-77
2024/03/05 12:46:37;;;;;;;36.90;18.95;;;9.90;99.90;;;;;;7594134;19;20895;-75
2024/03/05 12:49:09;;;;;;;35.65;18.42;;;9.90;99.90;;;;;;7600866;19;20090;-75
2024/03/05 12:51:42;;;;;;;40.05;21.52;;;10.00;99.90;;;;;;7604156;19;20546;-76
2024/03/05 12:54:16;;;;;;;40.03;20.80;;;10.00;99.90;;;;;;7538453;19;20559;-77
2024/03/05 12:56:48;;;;;;;33.72;17.30;;;10.20;99.90;;;;;;7593571;19;20033;-74
2024/03/05 12:59:21;;;;;;;32.08;18.05;;;10.30;99.90;;;;;;7599764;19;20022;-77
2024/03/05 13:01:53;;;;;;;34.42;18.27;;;10.40;99.90;;;;;;7581708;19;20049;-76
2024/03/05 13:04:26;;;;;;;33.65;17.88;;;10.50;99.90;;;;;;7574566;19;20018;-76
2024/03/05 13:06:59;;;;;;;28.30;16.02;;;10.60;99.90;;;;;;7581298;19;20052;-76
2024/03/05 13:09:31;;;;;;;30.65;17.25;;;10.80;99.90;;;;;;7629217;19;20018;-76
2024/03/05 13:12:04;;;;;;;29.42;15.27;;;11.00;99.90;;;;;;7637641;19;20018;-76
2024/03/05 13:14:37;;;;;;;28.75;16.48;;;11.10;99.90;;;;;;7627549;19;20011;-74